createdAt,value
2018-03-27T00:09:15.542Z,3.34
2018-03-27T00:19:13.642Z,3.34
2018-03-27T00:29:09.924Z,3.34
2018-03-27T00:39:07.873Z,3.33
2018-03-27T00:49:05.711Z,3.33
2018-03-27T00:59:02.809Z,3.33
2018-03-27T01:08:59.743Z,3.33
2018-03-27T01:18:57.672Z,3.33
2018-03-27T01:28:55.601Z,3.33
2018-03-27T01:38:49.845Z,3.33
2018-03-27T01:48:47.557Z,3.33
2018-03-27T01:58:43.635Z,3.33
2018-03-27T02:08:41.989Z,3.33
2018-03-27T02:18:39.574Z,3.33
2018-03-27T02:28:37.805Z,3.33
2018-03-27T02:38:35.533Z,3.32
2018-03-27T02:48:32.649Z,3.32
2018-03-27T02:58:29.024Z,3.32
2018-03-27T03:08:24.888Z,3.32
2018-03-27T03:18:22.037Z,3.32
2018-03-27T03:28:19.211Z,3.32
2018-03-27T03:38:16.385Z,3.32
2018-03-27T03:48:13.550Z,3.31
2018-03-27T03:58:11.468Z,3.31
2018-03-27T04:08:08.080Z,3.31
2018-03-27T04:18:06.238Z,3.31
2018-03-27T04:28:01.385Z,3.31
2018-03-27T04:37:58.769Z,3.31
2018-03-27T04:47:56.284Z,3.31
2018-03-27T04:57:52.410Z,3.31
2018-03-27T05:07:49.994Z,3.31
2018-03-27T05:17:47.032Z,3.32
2018-03-27T05:27:41.604Z,3.33
2018-03-27T05:37:36.898Z,3.33
2018-03-27T05:47:32.334Z,3.34
2018-03-27T05:57:21.362Z,3.36
2018-03-27T06:07:18.957Z,3.37
2018-03-27T06:17:16.581Z,3.37
2018-03-27T06:27:09.669Z,3.39
2018-03-27T06:37:04.128Z,3.39
2018-03-27T06:47:01.957Z,3.39
2018-03-27T06:56:56.240Z,3.39
2018-03-27T07:06:54.164Z,3.40
2018-03-27T07:16:47.603Z,3.41
2018-03-27T07:26:44.106Z,3.42
2018-03-27T07:36:38.357Z,3.40
2018-03-27T07:46:35.852Z,3.40
2018-03-27T07:56:28.837Z,3.40
2018-03-27T08:06:22.789Z,3.41
2018-03-27T08:16:21.744Z,3.41
2018-03-27T08:26:19.536Z,3.41
2018-03-27T08:36:18.253Z,3.41
2018-03-27T08:46:14.478Z,3.41
2018-03-27T08:56:11.508Z,3.41
2018-03-27T09:06:05.349Z,3.42
2018-03-27T09:16:03.183Z,3.42
2018-03-27T09:25:58.808Z,3.42
2018-03-27T09:35:57.354Z,3.42
2018-03-27T09:45:54.850Z,3.41
2018-03-27T09:55:51.736Z,3.41
2018-03-27T10:05:49.570Z,3.41
2018-03-27T10:15:46.921Z,3.41
2018-03-27T10:25:24.190Z,3.42
2018-03-27T10:34:59.693Z,3.42
2018-03-27T10:44:40.253Z,3.42
2018-03-27T10:54:09.264Z,3.42
2018-03-27T11:03:47.745Z,3.42
2018-03-27T11:13:26.136Z,3.40
2018-03-27T11:23:01.497Z,3.40
2018-03-27T11:32:39.149Z,3.41
2018-03-27T11:42:15.342Z,3.41
2018-03-27T11:51:57.048Z,3.41
2018-03-27T12:01:27.932Z,3.41
2018-03-27T12:11:00.147Z,3.41
2018-03-27T12:20:33.091Z,3.41
2018-03-27T12:30:03.915Z,3.41
2018-03-27T12:39:39.663Z,3.42
2018-03-27T12:49:10.437Z,3.42
2018-03-27T12:58:38.726Z,3.42
2018-03-27T13:08:19.966Z,3.42
2018-03-27T13:17:56.504Z,3.42
2018-03-27T13:27:28.568Z,3.42
2018-03-27T13:37:06.747Z,3.42
2018-03-27T13:46:38.781Z,3.42
2018-03-27T13:56:20.390Z,3.42
2018-03-27T14:06:01.892Z,3.43
2018-03-27T14:15:29.421Z,3.42
2018-03-27T14:24:53.488Z,3.43
2018-03-27T14:34:27.833Z,3.42
2018-03-27T14:44:07.924Z,3.42
2018-03-27T14:53:50.402Z,3.42
2018-03-27T15:03:24.122Z,3.43
2018-03-27T15:12:53.021Z,3.42
2018-03-27T15:22:17.381Z,3.42
2018-03-27T15:31:56.654Z,3.43
2018-03-27T15:41:26.509Z,3.43
2018-03-27T15:51:11.448Z,3.42
2018-03-27T16:01:07.282Z,3.41
2018-03-27T16:11:04.598Z,3.42
2018-03-27T16:20:55.284Z,3.41
2018-03-27T16:30:47.157Z,3.41
2018-03-27T16:40:43.296Z,3.41
2018-03-27T16:50:39.326Z,3.43
2018-03-27T17:00:33.819Z,3.42
2018-03-27T17:10:29.289Z,3.42
2018-03-27T17:20:24.876Z,3.41
2018-03-27T17:30:20.424Z,3.40
2018-03-27T17:40:15.835Z,3.40
2018-03-27T17:50:08.258Z,3.40
2018-03-27T18:00:01.649Z,3.39
2018-03-27T18:09:57.804Z,3.39
2018-03-27T18:19:53.967Z,3.39
2018-03-27T18:29:48.875Z,3.39
2018-03-27T18:39:44.417Z,3.39
2018-03-27T18:49:39.055Z,3.39
2018-03-27T18:59:32.204Z,3.38
2018-03-27T19:09:25.728Z,3.38
2018-03-27T19:19:21.388Z,3.38
2018-03-27T19:29:17.150Z,3.38
2018-03-27T19:39:13.397Z,3.37
2018-03-27T19:49:06.859Z,3.37
2018-03-27T19:59:02.136Z,3.37
2018-03-27T20:08:54.845Z,3.37
2018-03-27T20:18:50.785Z,3.37
2018-03-27T20:28:44.730Z,3.37
2018-03-27T20:38:40.169Z,3.37
2018-03-27T20:48:35.724Z,3.37
2018-03-27T20:58:33.403Z,3.37
2018-03-27T21:08:25.336Z,3.36
2018-03-27T21:18:17.999Z,3.36
2018-03-27T21:28:11.579Z,3.36
2018-03-27T21:38:08.935Z,3.36
2018-03-27T21:48:06.754Z,3.35
2018-03-27T21:58:02.477Z,3.34
2018-03-27T22:07:59.712Z,3.34
2018-03-27T22:17:57.042Z,3.34
2018-03-27T22:27:53.650Z,3.34
2018-03-27T22:37:50.625Z,3.34
2018-03-27T22:47:48.575Z,3.34
2018-03-27T22:57:46.050Z,3.34
2018-03-27T23:07:43.667Z,3.34
2018-03-27T23:17:37.367Z,3.33
2018-03-27T23:27:33.706Z,3.33
2018-03-27T23:37:20.818Z,3.33
2018-03-27T23:47:18.364Z,3.33
2018-03-27T23:57:15.100Z,3.33
